createdAt,value
2023-04-15T00:02:20.198Z,7.13
2023-04-15T00:04:48.825Z,6.10
2023-04-15T00:07:17.928Z,5.13
2023-04-15T00:09:48.560Z,4.93
2023-04-15T00:12:17.987Z,6.53
2023-04-15T00:14:48.564Z,5.20
2023-04-15T00:17:17.083Z,4.43
2023-04-15T00:19:45.883Z,4.53
2023-04-15T00:22:16.273Z,5.67
2023-04-15T00:24:44.449Z,6.80
2023-04-15T00:27:12.523Z,8.43
2023-04-15T00:29:41.995Z,7.83
2023-04-15T00:32:10.273Z,5.33
2023-04-15T00:34:38.418Z,5.80
2023-04-15T00:37:06.464Z,6.50
2023-04-15T00:39:34.532Z,6.37
2023-04-15T00:42:03.281Z,6.83
2023-04-15T00:44:31.393Z,5.43
2023-04-15T00:47:02.823Z,7.17
2023-04-15T00:49:32.218Z,8.13
2023-04-15T00:52:03.502Z,5.90
2023-04-15T00:54:33.670Z,4.97
2023-04-15T00:57:06.960Z,7.13
2023-04-15T00:59:35.442Z,7.80
2023-04-15T01:02:05.087Z,7.00
2023-04-15T01:04:33.529Z,6.23
2023-04-15T01:07:02.442Z,9.07
2023-04-15T01:09:30.660Z,6.67
2023-04-15T01:12:01.066Z,8.00
2023-04-15T01:14:30.213Z,5.90
2023-04-15T01:16:58.515Z,4.87
2023-04-15T01:19:28.560Z,7.00
2023-04-15T01:21:57.753Z,5.67
2023-04-15T01:24:28.925Z,5.30
2023-04-15T01:26:58.497Z,5.23
2023-04-15T01:29:27.399Z,5.73
2023-04-15T01:31:57.493Z,5.80
2023-04-15T01:34:27.652Z,6.03
2023-04-15T01:36:56.026Z,5.13
2023-04-15T01:39:24.190Z,5.47
2023-04-15T01:41:59.441Z,5.30
2023-04-15T01:44:27.613Z,5.80
2023-04-15T01:46:55.784Z,5.10
2023-04-15T01:49:23.966Z,5.63
2023-04-15T01:51:52.044Z,8.17
2023-04-15T01:54:20.105Z,6.87
2023-04-15T01:56:52.542Z,5.67
2023-04-15T01:59:24.152Z,6.33
2023-04-15T02:01:52.691Z,6.00
2023-04-15T02:04:21.297Z,6.70
2023-04-15T02:06:49.383Z,7.23
2023-04-15T02:09:17.485Z,5.87
2023-04-15T02:11:47.153Z,6.57
2023-04-15T02:14:15.268Z,6.07
2023-04-15T02:16:44.717Z,6.23
2023-04-15T02:19:17.619Z,5.33
2023-04-15T02:21:45.774Z,5.57
2023-04-15T02:24:13.862Z,5.40
2023-04-15T02:26:42.727Z,6.17
2023-04-15T02:29:13.255Z,5.90
2023-04-15T02:31:42.302Z,5.63
2023-04-15T02:34:11.929Z,5.70
2023-04-15T02:36:40.741Z,6.03
2023-04-15T02:39:08.896Z,7.50
2023-04-15T02:41:37.024Z,5.47
2023-04-15T02:44:07.139Z,6.23
2023-04-15T02:46:35.717Z,7.90
2023-04-15T02:49:03.845Z,6.30
2023-04-15T02:51:33.382Z,7.83
2023-04-15T02:54:03.952Z,6.60
2023-04-15T02:56:34.219Z,8.53
2023-04-15T02:59:02.414Z,6.03
2023-04-15T03:01:30.724Z,6.00
2023-04-15T03:03:58.886Z,9.13
2023-04-15T03:06:27.127Z,7.80
2023-04-15T03:09:00.458Z,6.33
2023-04-15T03:11:31.529Z,6.43
2023-04-15T03:13:59.791Z,5.73
2023-04-15T03:16:32.911Z,6.40
2023-04-15T03:19:01.179Z,5.57
2023-04-15T03:21:30.019Z,5.53
2023-04-15T03:24:01.608Z,5.30
2023-04-15T03:26:30.992Z,7.80
2023-04-15T03:29:03.011Z,5.20
2023-04-15T03:31:31.405Z,7.50
2023-04-15T03:33:59.482Z,8.10
2023-04-15T03:36:30.370Z,7.93
2023-04-15T03:38:58.731Z,5.90
2023-04-15T03:41:28.417Z,5.80
2023-04-15T03:43:56.765Z,6.20
2023-04-15T03:46:24.965Z,5.67
2023-04-15T03:48:53.064Z,6.97
2023-04-15T03:51:21.428Z,6.47
2023-04-15T03:53:49.486Z,6.13
2023-04-15T03:56:17.543Z,7.30
2023-04-15T03:58:47.008Z,6.73
2023-04-15T04:01:15.167Z,5.77
2023-04-15T04:03:43.570Z,7.20
2023-04-15T04:06:12.751Z,6.53
2023-04-15T04:08:41.072Z,5.00
2023-04-15T04:11:09.167Z,6.47
2023-04-15T04:13:37.299Z,7.17
2023-04-15T04:16:07.468Z,6.80
2023-04-15T04:18:35.646Z,6.77
2023-04-15T04:21:03.888Z,11.03
2023-04-15T04:23:31.985Z,7.27
2023-04-15T04:26:02.178Z,7.30
2023-04-15T04:28:30.292Z,8.27
2023-04-15T04:30:58.404Z,9.17
2023-04-15T04:33:27.906Z,7.33
2023-04-15T04:35:56.159Z,8.47
2023-04-15T04:38:24.271Z,10.83
2023-04-15T04:40:52.382Z,8.30
2023-04-15T04:43:22.919Z,7.17
2023-04-15T04:45:51.222Z,8.93
2023-04-15T04:48:21.922Z,9.40
2023-04-15T04:50:51.447Z,8.47
2023-04-15T04:53:19.489Z,7.80
2023-04-15T04:55:49.589Z,9.20
2023-04-15T04:58:17.654Z,10.07
2023-04-15T05:00:46.059Z,10.30
2023-04-15T05:03:14.401Z,8.60
2023-04-15T05:05:42.575Z,9.70
2023-04-15T05:08:12.073Z,8.40
2023-04-15T05:10:42.690Z,8.67
2023-04-15T05:13:13.171Z,13.17
2023-04-15T05:15:43.708Z,8.00
2023-04-15T05:18:11.869Z,8.70
2023-04-15T05:20:40.436Z,9.03
2023-04-15T05:23:08.746Z,9.97
2023-04-15T05:25:38.174Z,9.30
2023-04-15T05:28:06.630Z,11.93
2023-04-15T05:30:34.922Z,9.87
2023-04-15T05:33:03.040Z,9.83
2023-04-15T05:35:31.184Z,8.80
2023-04-15T05:37:59.275Z,12.33
2023-04-15T05:40:29.739Z,10.90
2023-04-15T05:42:59.279Z,9.93
2023-04-15T05:45:27.478Z,11.30
2023-04-15T05:47:57.944Z,13.13
2023-04-15T05:50:28.349Z,9.57
2023-04-15T05:52:57.048Z,10.60
2023-04-15T05:55:25.144Z,10.03
2023-04-15T05:57:55.341Z,10.47
2023-04-15T06:00:24.835Z,10.90
2023-04-15T06:02:53.198Z,9.93
2023-04-15T06:05:21.413Z,13.03
2023-04-15T06:07:50.293Z,12.87
2023-04-15T06:10:20.624Z,11.30
2023-04-15T06:12:50.954Z,12.97
2023-04-15T06:15:19.624Z,12.03
2023-04-15T06:17:51.368Z,11.63
2023-04-15T06:20:21.758Z,11.83
2023-04-15T06:22:49.818Z,11.40
2023-04-15T06:25:18.160Z,14.90
2023-04-15T06:27:48.347Z,12.30
2023-04-15T06:30:16.535Z,11.43
2023-04-15T06:32:44.819Z,13.13
2023-04-15T06:35:16.739Z,13.10
2023-04-15T06:37:47.374Z,13.53
2023-04-15T06:40:15.793Z,14.30
2023-04-15T06:42:43.991Z,13.20
2023-04-15T06:45:14.507Z,13.10
2023-04-15T06:47:43.606Z,13.70
2023-04-15T06:50:12.474Z,14.10
2023-04-15T06:52:42.434Z,13.63
2023-04-15T06:55:11.506Z,12.93
2023-04-15T06:57:39.648Z,13.47
2023-04-15T07:00:11.184Z,13.87
2023-04-15T07:02:41.980Z,14.33
2023-04-15T07:05:10.407Z,15.93
2023-04-15T07:07:42.296Z,14.10
2023-04-15T07:10:13.070Z,14.57
2023-04-15T07:12:41.450Z,12.77
2023-04-15T07:15:12.555Z,13.30
2023-04-15T07:17:40.725Z,14.90
2023-04-15T07:20:10.016Z,12.97
2023-04-15T07:22:38.229Z,14.63
2023-04-15T07:25:09.184Z,15.03
2023-04-15T07:27:37.360Z,14.20
2023-04-15T07:30:06.266Z,15.00
2023-04-15T07:32:34.658Z,14.17
2023-04-15T07:35:03.748Z,13.60
2023-04-15T07:37:32.230Z,13.43
2023-04-15T07:40:00.491Z,12.90
2023-04-15T07:42:30.563Z,14.17
2023-04-15T07:44:58.955Z,13.20
2023-04-15T07:47:27.093Z,12.20
2023-04-15T07:49:55.228Z,14.20
2023-04-15T07:52:25.815Z,15.37
2023-04-15T07:54:53.953Z,13.43
2023-04-15T07:57:22.057Z,14.30
2023-04-15T07:59:51.545Z,12.03
2023-04-15T08:02:22.380Z,12.63
2023-04-15T08:04:50.636Z,11.63
2023-04-15T08:07:19.106Z,14.80
2023-04-15T08:09:47.543Z,11.70
2023-04-15T08:12:15.960Z,13.00
2023-04-15T08:14:47.174Z,11.83
2023-04-15T08:17:16.928Z,10.17
2023-04-15T08:19:48.375Z,13.00
2023-04-15T08:22:18.541Z,12.93
2023-04-15T08:24:47.634Z,12.27
2023-04-15T08:27:15.715Z,12.63
2023-04-15T08:29:45.314Z,13.47
2023-04-15T08:32:13.584Z,12.53
2023-04-15T08:34:43.080Z,9.83
2023-04-15T08:37:13.527Z,10.30
2023-04-15T08:39:45.360Z,10.40
2023-04-15T08:42:18.387Z,9.80
2023-04-15T08:44:48.852Z,9.53
2023-04-15T08:47:22.752Z,10.43
2023-04-15T08:49:56.474Z,10.13
2023-04-15T08:52:27.064Z,11.13
2023-04-15T08:54:59.768Z,8.97
2023-04-15T08:57:29.084Z,8.83
2023-04-15T08:59:57.716Z,8.77
2023-04-15T09:02:27.649Z,8.40
2023-04-15T09:04:57.621Z,9.70
2023-04-15T09:07:26.069Z,9.20
2023-04-15T09:09:54.184Z,11.27
2023-04-15T09:12:24.726Z,10.33
2023-04-15T09:14:52.919Z,10.17
2023-04-15T09:17:22.247Z,10.60
2023-04-15T09:20:11.214Z,9.50
2023-04-15T09:22:40.757Z,8.30
2023-04-15T09:25:27.636Z,8.37
2023-04-15T09:27:57.499Z,9.23
2023-04-15T09:30:29.461Z,8.63
2023-04-15T09:33:02.214Z,9.53
2023-04-15T09:35:33.911Z,8.77
2023-04-15T09:38:05.206Z,12.63
2023-04-15T09:40:35.114Z,8.43
2023-04-15T09:43:03.872Z,7.83
2023-04-15T09:45:33.478Z,9.53
2023-04-15T09:48:17.085Z,9.70
2023-04-15T09:50:46.810Z,7.83
2023-04-15T09:53:18.366Z,7.93
2023-04-15T09:55:52.194Z,9.43
2023-04-15T09:58:24.297Z,9.40
2023-04-15T10:00:53.962Z,9.70
2023-04-15T10:03:25.936Z,7.83
2023-04-15T10:06:01.121Z,7.87
2023-04-15T10:08:31.108Z,10.03
2023-04-15T10:10:59.947Z,9.27
2023-04-15T10:13:32.903Z,8.73
2023-04-15T10:16:02.668Z,7.07
2023-04-15T10:18:36.392Z,6.77
2023-04-15T10:21:07.275Z,8.53
2023-04-15T10:23:35.678Z,7.37
2023-04-15T10:26:07.000Z,6.80
2023-04-15T10:28:37.541Z,6.33
2023-04-15T10:31:07.332Z,6.93
2023-04-15T10:33:36.193Z,9.93
2023-04-15T10:36:07.850Z,8.63
2023-04-15T10:38:37.373Z,6.53
2023-04-15T10:41:18.751Z,8.33
2023-04-15T10:43:53.499Z,6.27
2023-04-15T10:46:23.965Z,5.53
2023-04-15T10:48:53.594Z,5.07
2023-04-15T10:51:33.061Z,4.90
2023-04-15T10:54:01.748Z,5.37
2023-04-15T10:56:31.701Z,4.73
2023-04-15T10:59:02.027Z,4.77
2023-04-15T11:01:52.738Z,4.47
2023-04-15T11:04:58.710Z,8.17
2023-04-15T11:07:39.169Z,4.73
2023-04-15T11:10:48.789Z,4.07
2023-04-15T11:13:18.723Z,5.80
2023-04-15T11:15:48.097Z,3.73
2023-04-15T11:18:17.910Z,5.27
2023-04-15T11:20:50.515Z,4.43
2023-04-15T11:23:28.123Z,4.10
2023-04-15T11:25:59.845Z,3.90
2023-04-15T11:28:32.133Z,5.03
2023-04-15T11:31:06.550Z,4.10
2023-04-15T11:33:34.653Z,4.13
2023-04-15T11:36:03.524Z,3.10
2023-04-15T11:38:35.723Z,4.67
2023-04-15T11:41:03.884Z,3.67
2023-04-15T11:43:35.415Z,5.28
2023-04-15T11:46:05.163Z,6.30
2023-04-15T11:48:37.794Z,5.00
2023-04-15T11:51:07.430Z,4.57
2023-04-15T11:53:42.133Z,4.20
2023-04-15T11:56:11.906Z,3.93
2023-04-15T11:58:40.717Z,4.30
2023-04-15T12:01:11.463Z,5.40
2023-04-15T12:03:41.610Z,5.20
2023-04-15T12:06:18.342Z,4.13
2023-04-15T12:09:01.339Z,3.83
2023-04-15T12:11:32.366Z,5.33
2023-04-15T12:14:04.477Z,4.13
2023-04-15T12:16:36.970Z,3.77
2023-04-15T12:19:23.556Z,4.17
2023-04-15T12:21:52.022Z,3.10
2023-04-15T12:24:23.938Z,4.20
2023-04-15T12:26:57.365Z,3.90
2023-04-15T12:29:28.077Z,3.47
2023-04-15T12:32:00.667Z,2.80
2023-04-15T12:34:30.594Z,3.10
2023-04-15T12:37:01.841Z,5.93
2023-04-15T12:39:33.139Z,2.87
2023-04-15T12:42:01.636Z,3.37
2023-04-15T12:44:30.373Z,2.90
2023-04-15T12:46:58.670Z,4.27
2023-04-15T12:49:27.564Z,3.40
2023-04-15T12:51:57.525Z,3.00
2023-04-15T12:54:25.663Z,3.37
2023-04-15T12:56:55.564Z,4.00
2023-04-15T12:59:24.359Z,2.90
2023-04-15T13:01:53.560Z,4.00
2023-04-15T13:04:23.094Z,3.40
2023-04-15T13:06:51.838Z,3.30
2023-04-15T13:09:20.006Z,3.33
2023-04-15T13:11:48.178Z,3.37
2023-04-15T13:14:19.785Z,2.73
2023-04-15T13:16:47.868Z,3.57
2023-04-15T13:19:16.013Z,5.17
2023-04-15T13:21:44.197Z,3.60
2023-04-15T13:24:12.520Z,3.83
2023-04-15T13:26:40.623Z,3.57
2023-04-15T13:29:08.787Z,2.73
2023-04-15T13:31:38.327Z,4.30
2023-04-15T13:34:08.737Z,4.67
2023-04-15T13:36:38.942Z,2.70
2023-04-15T13:39:07.108Z,2.47
2023-04-15T13:41:38.339Z,3.20
2023-04-15T13:44:07.215Z,4.37
2023-04-15T13:46:40.483Z,3.80
2023-04-15T13:49:11.231Z,3.40
2023-04-15T13:51:41.776Z,3.07
2023-04-15T13:54:09.937Z,4.07
2023-04-15T13:56:38.011Z,4.00
2023-04-15T13:59:06.761Z,3.00
2023-04-15T14:01:35.694Z,4.77
2023-04-15T14:04:08.046Z,2.73
2023-04-15T14:06:36.426Z,3.30
2023-04-15T14:09:05.069Z,2.50
2023-04-15T14:11:35.372Z,2.43
2023-04-15T14:14:03.804Z,3.97
2023-04-15T14:16:34.098Z,2.67
2023-04-15T14:19:03.209Z,3.50
2023-04-15T14:21:33.627Z,2.83
2023-04-15T14:24:01.773Z,2.33
2023-04-15T14:26:29.880Z,3.13
2023-04-15T14:28:57.999Z,3.10
2023-04-15T14:31:26.186Z,2.80
2023-04-15T14:33:54.401Z,4.93
2023-04-15T14:36:22.666Z,4.83
2023-04-15T14:38:52.205Z,3.80
2023-04-15T14:41:22.450Z,3.23
2023-04-15T14:43:50.783Z,3.67
2023-04-15T14:46:19.054Z,3.87
2023-04-15T14:48:50.797Z,4.13
2023-04-15T14:51:18.971Z,6.27
2023-04-15T14:53:47.185Z,4.93
2023-04-15T14:56:16.856Z,3.23
2023-04-15T14:58:44.967Z,3.57
2023-04-15T15:01:13.415Z,4.53
2023-04-15T15:03:41.827Z,5.50
2023-04-15T15:06:10.100Z,6.30
2023-04-15T15:08:40.826Z,4.33
2023-04-15T15:11:09.009Z,3.30
2023-04-15T15:13:38.676Z,3.57
2023-04-15T15:16:11.860Z,5.17
2023-04-15T15:18:41.283Z,2.87
2023-04-15T15:21:09.407Z,4.03
2023-04-15T15:23:37.565Z,4.40
2023-04-15T15:26:06.899Z,6.00
2023-04-15T15:28:38.629Z,5.27
2023-04-15T15:31:06.886Z,4.77
2023-04-15T15:33:37.574Z,5.30
2023-04-15T15:36:06.033Z,6.63
2023-04-15T15:38:34.224Z,8.00
2023-04-15T15:41:02.324Z,5.60
2023-04-15T15:43:30.760Z,10.67
2023-04-15T15:46:00.336Z,4.57
2023-04-15T15:48:30.612Z,6.23
2023-04-15T15:50:58.837Z,7.13
2023-04-15T15:53:27.002Z,4.97
2023-04-15T15:55:55.232Z,8.00
2023-04-15T15:58:25.417Z,6.63
2023-04-15T16:00:53.562Z,12.27
2023-04-15T16:03:24.193Z,7.47
2023-04-15T16:05:52.419Z,8.83
2023-04-15T16:08:20.828Z,5.43
2023-04-15T16:10:49.012Z,7.83
2023-04-15T16:13:17.207Z,7.43
2023-04-15T16:15:45.430Z,7.80
2023-04-15T16:18:13.543Z,9.03
2023-04-15T16:20:45.905Z,5.40
2023-04-15T16:23:15.312Z,6.70
2023-04-15T16:25:44.743Z,9.07
2023-04-15T16:28:25.832Z,8.13
2023-04-15T16:30:56.001Z,6.07
2023-04-15T16:33:26.610Z,6.73
2023-04-15T16:35:56.080Z,10.40
2023-04-15T16:38:24.193Z,7.77
2023-04-15T16:40:52.674Z,8.37
2023-04-15T16:43:20.957Z,8.50
2023-04-15T16:45:51.066Z,8.23
2023-04-15T16:48:19.946Z,12.50
2023-04-15T16:50:48.860Z,10.57
2023-04-15T16:53:18.679Z,13.03
2023-04-15T16:55:46.757Z,11.33
2023-04-15T16:58:15.027Z,11.97
2023-04-15T17:00:43.259Z,10.10
2023-04-15T17:03:11.546Z,14.60
2023-04-15T17:05:39.765Z,12.60
2023-04-15T17:08:08.413Z,10.13
2023-04-15T17:10:37.934Z,10.83
2023-04-15T17:13:08.666Z,15.83
2023-04-15T17:15:36.824Z,13.17
2023-04-15T17:18:05.801Z,15.60
2023-04-15T17:20:36.191Z,9.07
2023-04-15T17:23:06.946Z,12.50
2023-04-15T17:25:35.073Z,12.67
2023-04-15T17:28:04.528Z,8.13
2023-04-15T17:30:33.862Z,12.83
2023-04-15T17:33:02.529Z,15.37
2023-04-15T17:35:53.036Z,14.50
2023-04-15T17:38:21.123Z,13.30
2023-04-15T17:40:49.484Z,10.10
2023-04-15T17:43:21.238Z,11.80
2023-04-15T17:45:49.452Z,15.57
2023-04-15T17:48:17.568Z,14.53
2023-04-15T17:50:48.906Z,13.83
2023-04-15T17:53:18.641Z,13.47
2023-04-15T17:55:47.317Z,11.33
2023-04-15T17:58:15.443Z,12.23
2023-04-15T18:00:44.909Z,13.30
2023-04-15T18:03:15.890Z,15.97
2023-04-15T18:05:46.538Z,13.27
2023-04-15T18:08:14.750Z,12.60
2023-04-15T18:10:42.818Z,14.47
2023-04-15T18:13:13.002Z,15.00
2023-04-15T18:15:41.166Z,18.03
2023-04-15T18:18:10.673Z,13.63
2023-04-15T18:20:38.797Z,14.97
2023-04-15T18:23:07.224Z,19.23
2023-04-15T18:25:35.371Z,16.97
2023-04-15T18:28:06.400Z,14.23
2023-04-15T18:30:36.857Z,16.63
2023-04-15T18:33:05.225Z,18.13
2023-04-15T18:35:36.610Z,21.70
2023-04-15T18:38:04.843Z,16.90
2023-04-15T18:40:32.939Z,22.20
2023-04-15T18:43:01.215Z,19.67
2023-04-15T18:45:29.374Z,17.77
2023-04-15T18:47:57.874Z,18.40
2023-04-15T18:50:26.037Z,17.67
2023-04-15T18:52:58.172Z,19.57
2023-04-15T18:55:28.456Z,19.30
2023-04-15T18:57:56.847Z,19.80
2023-04-15T19:00:40.670Z,26.37
2023-04-15T19:03:09.290Z,19.67
2023-04-15T19:05:37.705Z,25.27
2023-04-15T19:08:07.470Z,23.27
2023-04-15T19:10:38.235Z,20.97
2023-04-15T19:13:08.853Z,21.80
2023-04-15T19:15:36.945Z,26.05
2023-04-15T19:18:10.383Z,25.02
2023-04-15T19:20:41.737Z,23.30
2023-04-15T19:23:11.820Z,23.07
2023-04-15T19:25:39.997Z,20.63
2023-04-15T19:28:08.157Z,21.63
2023-04-15T19:30:36.458Z,27.20
2023-04-15T19:33:04.658Z,24.47
2023-04-15T19:35:35.206Z,25.13
2023-04-15T19:38:06.782Z,24.87
2023-04-15T19:40:36.266Z,29.13
2023-04-15T19:43:07.696Z,21.77
2023-04-15T19:45:36.403Z,27.03
2023-04-15T19:48:06.108Z,23.80
2023-04-15T19:50:34.791Z,26.97
2023-04-15T19:53:05.192Z,21.77
2023-04-15T19:55:37.083Z,26.00
2023-04-15T19:58:07.412Z,20.20
2023-04-15T20:00:35.548Z,23.43
2023-04-15T20:03:03.971Z,21.50
2023-04-15T20:05:32.305Z,26.63
2023-04-15T20:08:01.846Z,25.30
2023-04-15T20:10:32.436Z,28.20
2023-04-15T20:13:02.415Z,26.60
2023-04-15T20:15:30.839Z,22.17
2023-04-15T20:17:59.076Z,23.27
2023-04-15T20:20:27.322Z,22.17
2023-04-15T20:22:55.501Z,30.03
2023-04-15T20:25:26.243Z,25.30
2023-04-15T20:27:54.370Z,28.40
2023-04-15T20:30:23.940Z,26.37
2023-04-15T20:32:52.165Z,30.53
2023-04-15T20:35:20.870Z,30.67
2023-04-15T20:37:50.011Z,29.50
2023-04-15T20:40:18.431Z,26.13
2023-04-15T20:42:52.234Z,27.30
2023-04-15T20:45:23.809Z,28.23
2023-04-15T20:47:54.771Z,34.40
2023-04-15T20:50:23.078Z,29.93
2023-04-15T20:52:51.296Z,28.93
2023-04-15T20:55:19.617Z,30.67
2023-04-15T20:57:48.483Z,30.10
2023-04-15T21:00:16.911Z,31.07
2023-04-15T21:02:48.841Z,31.23
2023-04-15T21:05:17.639Z,33.57
2023-04-15T21:07:45.920Z,32.10
2023-04-15T21:10:14.063Z,31.93
2023-04-15T21:12:42.565Z,26.57
2023-04-15T21:15:11.659Z,35.37
2023-04-15T21:17:41.577Z,34.03
2023-04-15T21:20:12.636Z,30.17
2023-04-15T21:22:41.224Z,32.70
2023-04-15T21:25:10.331Z,30.70
2023-04-15T21:27:40.851Z,28.23
2023-04-15T21:30:09.889Z,33.17
2023-04-15T21:32:38.110Z,29.93
2023-04-15T21:35:07.396Z,31.40
2023-04-15T21:37:37.534Z,29.50
2023-04-15T21:40:07.232Z,31.70
2023-04-15T21:42:35.338Z,38.50
2023-04-15T21:45:03.415Z,35.77
2023-04-15T21:47:31.666Z,37.70
2023-04-15T21:50:19.862Z,36.50
2023-04-15T21:52:49.424Z,32.30
2023-04-15T21:55:18.103Z,38.23
2023-04-15T21:57:49.312Z,37.73
2023-04-15T22:00:17.942Z,41.30
2023-04-15T22:02:46.145Z,40.07
2023-04-15T22:05:14.325Z,39.77
2023-04-15T22:07:42.504Z,35.13
2023-04-15T22:10:12.449Z,38.23
2023-04-15T22:12:42.242Z,38.40
2023-04-15T22:15:10.958Z,36.93
2023-04-15T22:17:41.241Z,41.40
2023-04-15T22:20:10.829Z,37.77
2023-04-15T22:22:44.111Z,43.50
2023-04-15T22:25:14.371Z,42.10
2023-04-15T22:27:42.589Z,41.30
2023-04-15T22:30:12.027Z,43.73
2023-04-15T22:32:40.179Z,40.60
2023-04-15T22:35:09.030Z,44.23
2023-04-15T22:37:40.192Z,41.73
2023-04-15T22:40:09.278Z,44.03
2023-04-15T22:42:38.777Z,45.37
2023-04-15T22:45:08.421Z,39.07
2023-04-15T22:47:38.822Z,35.00
2023-04-15T22:50:08.474Z,40.30
2023-04-15T22:52:36.852Z,40.87
2023-04-15T22:55:05.276Z,38.83
2023-04-15T22:57:33.484Z,47.53
2023-04-15T23:00:03.020Z,41.90
2023-04-15T23:02:31.272Z,44.33
2023-04-15T23:04:59.533Z,37.23
2023-04-15T23:07:30.349Z,43.67
2023-04-15T23:10:00.266Z,42.03
2023-04-15T23:12:28.529Z,47.53
2023-04-15T23:14:56.578Z,38.57
2023-04-15T23:17:26.784Z,42.20
2023-04-15T23:19:54.960Z,41.80
2023-04-15T23:22:23.158Z,43.67
2023-04-15T23:24:53.863Z,42.40
2023-04-15T23:27:22.843Z,42.50
2023-04-15T23:29:50.928Z,44.63
2023-04-15T23:32:19.053Z,47.13
2023-04-15T23:34:48.517Z,46.80
2023-04-15T23:37:18.998Z,42.23
2023-04-15T23:39:49.181Z,43.73
2023-04-15T23:42:17.260Z,45.73
2023-04-15T23:44:45.378Z,43.67
2023-04-15T23:47:13.499Z,45.40
2023-04-15T23:49:41.707Z,43.57
2023-04-15T23:52:11.589Z,42.80
2023-04-15T23:54:39.709Z,45.73
2023-04-15T23:57:10.397Z,42.03
2023-04-15T23:59:40.764Z,44.13
